Time;durP1;ratioP1;P1;durP2;ratioP2;P2;SDS_P1;SDS_P2;PMS_P1;PMS_P2;Temp;Humidity;BMP_temperature;BMP_pressure;BME280_temperature;BME280_humidity;BME280_pressure;Samples;Min_cycle;Max_cycle;Signal;HPM_P1;HPM_P2
2022/08/31 00:04:03;;;;;;;1.55;1.02;;;15.80;93.60;;;;;;4921889;29;20923;-69
2022/08/31 00:06:34;;;;;;;4.90;1.10;;;15.80;93.60;;;;;;4924793;29;20503;-69
2022/08/31 00:09:02;;;;;;;1.88;0.95;;;15.70;93.80;;;;;;4922773;29;20417;-70
2022/08/31 00:11:29;;;;;;;1.83;1.00;;;15.70;93.90;;;;;;4922917;29;20107;-70
2022/08/31 00:14:02;;;;;;;2.67;1.10;;;15.70;93.90;;;;;;4922344;29;20035;-70
2022/08/31 00:16:30;;;;;;;1.33;0.90;;;15.70;94.00;;;;;;4919769;29;20031;-69
2022/08/31 00:18:56;;;;;;;1.45;1.15;;;15.60;94.00;;;;;;4919340;29;20031;-70
2022/08/31 00:21:25;;;;;;;2.42;1.17;;;15.70;94.10;;;;;;4918473;29;20019;-69
2022/08/31 00:23:52;;;;;;;1.40;0.90;;;15.60;94.10;;;;;;4925592;28;20424;-69
2022/08/31 00:26:19;;;;;;;1.42;1.05;;;15.60;94.10;;;;;;4922523;29;20040;-69
2022/08/31 00:28:45;;;;;;;1.85;1.17;;;15.60;94.20;;;;;;4922930;29;20031;-69
2022/08/31 00:31:12;;;;;;;1.25;0.90;;;15.60;94.20;;;;;;4920809;29;20154;-69
2022/08/31 00:33:38;;;;;;;2.13;0.90;;;15.50;94.30;;;;;;4921258;28;20043;-69
2022/08/31 00:36:07;;;;;;;1.30;1.00;;;15.50;94.20;;;;;;4919214;29;20068;-69
2022/08/31 00:38:33;;;;;;;2.47;1.00;;;15.50;94.20;;;;;;4914912;29;20396;-69
2022/08/31 00:40:59;;;;;;;2.42;1.08;;;15.50;94.20;;;;;;4924232;29;20102;-69
2022/08/31 00:43:48;;;;;;;1.35;0.95;;;15.50;94.20;;;;;;4923321;29;20032;-69
2022/08/31 00:46:18;;;;;;;2.47;1.27;;;15.40;94.20;;;;;;4921315;29;20586;-69
2022/08/31 00:49:00;;;;;;;1.67;0.93;;;15.40;94.30;;;;;;4921708;29;20039;-69
2022/08/31 00:51:29;;;;;;;1.10;1.00;;;15.40;94.30;;;;;;4917377;29;20027;-69
2022/08/31 00:53:55;;;;;;;3.28;0.93;;;15.30;94.50;;;;;;4917957;29;20028;-69
2022/08/31 00:56:22;;;;;;;1.75;1.00;;;15.30;94.50;;;;;;4916740;29;20024;-69
2022/08/31 00:58:50;;;;;;;1.55;1.10;;;15.30;94.60;;;;;;4913941;29;20448;-70
2022/08/31 01:01:18;;;;;;;1.10;1.00;;;15.30;94.70;;;;;;4922787;29;20090;-70
2022/08/31 01:03:44;;;;;;;2.92;1.30;;;15.30;95.00;;;;;;4937019;28;20853;-70
2022/08/31 01:06:10;;;;;;;2.67;1.67;;;15.30;94.70;;;;;;4921521;29;20071;-69
2022/08/31 01:08:36;;;;;;;1.85;0.93;;;15.20;94.70;;;;;;4921202;29;20327;-70
2022/08/31 01:11:02;;;;;;;2.15;1.08;;;15.20;94.80;;;;;;4917691;29;20834;-70
2022/08/31 01:13:29;;;;;;;3.30;0.95;;;15.20;94.70;;;;;;4917962;29;20031;-70
2022/08/31 01:15:59;;;;;;;2.20;1.20;;;15.20;95.00;;;;;;4914503;29;20059;-70
2022/08/31 01:18:25;;;;;;;0.95;0.90;;;15.10;94.80;;;;;;4915765;29;20031;-71
2022/08/31 01:21:03;;;;;;;3.17;1.10;;;15.10;94.80;;;;;;4919780;29;20087;-70
2022/08/31 01:23:37;;;;;;;3.38;1.20;;;15.10;94.90;;;;;;4933392;29;20032;-70
2022/08/31 01:26:04;;;;;;;2.03;1.30;;;15.10;94.80;;;;;;4918348;29;20028;-70
2022/08/31 01:28:30;;;;;;;0.80;0.80;;;15.10;94.90;;;;;;4918961;29;20551;-70
2022/08/31 01:31:01;;;;;;;3.50;1.10;;;15.10;94.90;;;;;;4915438;29;20130;-70
2022/08/31 01:33:28;;;;;;;2.08;1.00;;;15.00;94.90;;;;;;4918463;29;20118;-70
2022/08/31 01:35:55;;;;;;;1.83;1.23;;;15.00;94.90;;;;;;4916249;29;20043;-70
2022/08/31 01:38:21;;;;;;;2.35;1.30;;;15.00;94.80;;;;;;4922028;29;20165;-70
2022/08/31 01:40:56;;;;;;;1.30;0.95;;;15.00;94.80;;;;;;4938982;28;20161;-70
2022/08/31 01:43:23;;;;;;;1.47;1.10;;;14.90;94.90;;;;;;4919568;29;20031;-70
2022/08/31 01:45:50;;;;;;;4.22;1.00;;;14.90;95.00;;;;;;4918204;29;20914;-71
2022/08/31 01:48:17;;;;;;;2.28;1.25;;;14.90;95.10;;;;;;4918059;29;20547;-70
2022/08/31 01:50:44;;;;;;;1.92;0.90;;;14.90;95.10;;;;;;4920122;29;20031;-70
2022/08/31 01:53:11;;;;;;;1.63;1.10;;;14.90;95.10;;;;;;4920452;29;20112;-70
2022/08/31 01:55:38;;;;;;;1.65;0.90;;;14.80;95.10;;;;;;4921245;29;20136;-71
2022/08/31 01:58:04;;;;;;;1.02;0.93;;;14.80;95.10;;;;;;4920851;29;20069;-70
2022/08/31 02:00:53;;;;;;;2.42;1.00;;;14.80;95.10;;;;;;4923646;29;20131;-70
2022/08/31 02:03:19;;;;;;;1.25;0.90;;;14.80;95.20;;;;;;4919128;29;20047;-70
2022/08/31 02:05:45;;;;;;;4.28;1.15;;;14.80;95.20;;;;;;4918394;29;20048;-70
2022/08/31 02:08:11;;;;;;;1.63;0.90;;;14.70;95.20;;;;;;4916257;29;20047;-71
2022/08/31 02:10:37;;;;;;;2.08;1.00;;;14.70;95.20;;;;;;4916957;29;20055;-70
2022/08/31 02:13:04;;;;;;;1.48;1.08;;;14.70;95.40;;;;;;4919071;29;20792;-70
2022/08/31 02:15:31;;;;;;;5.38;1.38;;;14.70;95.40;;;;;;4921585;29;20016;-69
2022/08/31 02:17:58;;;;;;;1.58;1.17;;;14.60;95.40;;;;;;4921593;29;20035;-70
2022/08/31 02:20:24;;;;;;;2.35;1.15;;;14.60;95.30;;;;;;4921198;29;20040;-70
2022/08/31 02:22:50;;;;;;;2.88;1.13;;;14.60;95.40;;;;;;4921112;29;20034;-70
2022/08/31 02:25:16;;;;;;;2.17;0.90;;;14.60;95.40;;;;;;4917296;29;20048;-70
2022/08/31 02:27:42;;;;;;;1.27;1.17;;;14.60;95.80;;;;;;4916046;29;20131;-70
2022/08/31 02:30:13;;;;;;;1.45;1.15;;;14.60;95.60;;;;;;4914105;29;20063;-70
2022/08/31 02:32:39;;;;;;;1.95;1.23;;;14.60;95.60;;;;;;4913686;28;20039;-70
2022/08/31 02:35:05;;;;;;;5.82;1.33;;;14.60;95.70;;;;;;4921193;29;20058;-71
2022/08/31 02:37:31;;;;;;;2.90;1.23;;;14.60;95.60;;;;;;4921660;29;20043;-70
2022/08/31 02:39:59;;;;;;;1.70;0.98;;;14.50;95.80;;;;;;4917789;29;20464;-70
2022/08/31 02:42:24;;;;;;;1.45;1.23;;;14.60;95.90;;;;;;4921939;29;20122;-70
2022/08/31 02:44:50;;;;;;;4.18;1.15;;;14.60;95.80;;;;;;4920892;29;20068;-70
2022/08/31 02:47:16;;;;;;;2.08;1.15;;;14.60;95.80;;;;;;4917918;29;20036;-70
2022/08/31 02:50:03;;;;;;;2.08;1.23;;;14.60;95.90;;;;;;4922502;29;20043;-70
2022/08/31 02:52:29;;;;;;;2.05;1.20;;;14.60;95.80;;;;;;4919241;29;20027;-70
2022/08/31 02:54:55;;;;;;;1.52;1.15;;;14.60;95.90;;;;;;4925846;29;20023;-69
2022/08/31 02:57:21;;;;;;;5.57;1.20;;;14.70;95.90;;;;;;4924161;29;20059;-70
2022/08/31 02:59:48;;;;;;;1.77;1.02;;;14.60;95.70;;;;;;4922724;29;20060;-70
2022/08/31 03:02:14;;;;;;;1.92;1.00;;;14.60;95.60;;;;;;4924209;29;20066;-70
2022/08/31 03:04:40;;;;;;;2.28;1.23;;;14.60;95.70;;;;;;4920276;29;20821;-70
2022/08/31 03:07:06;;;;;;;2.45;1.17;;;14.60;95.50;;;;;;4923184;29;20039;-70
2022/08/31 03:09:32;;;;;;;1.90;1.20;;;14.60;95.60;;;;;;4918745;29;20024;-70
2022/08/31 03:11:59;;;;;;;1.63;1.23;;;14.60;95.70;;;;;;4925207;29;20035;-70
2022/08/31 03:14:25;;;;;;;3.20;1.02;;;14.60;95.80;;;;;;4923395;29;20028;-70
2022/08/31 03:16:52;;;;;;;2.10;1.17;;;14.50;95.80;;;;;;4922512;29;20086;-70
2022/08/31 03:19:20;;;;;;;1.30;1.00;;;14.60;95.80;;;;;;4924481;29;20198;-71
2022/08/31 03:21:46;;;;;;;4.10;1.33;;;14.60;95.80;;;;;;4924267;29;20801;-70
2022/08/31 03:24:13;;;;;;;1.05;0.95;;;14.60;95.90;;;;;;4923500;29;20120;-70
2022/08/31 03:26:39;;;;;;;4.80;1.50;;;14.60;96.00;;;;;;4924221;29;20031;-70
2022/08/31 03:29:06;;;;;;;1.80;1.40;;;14.60;96.10;;;;;;4915350;29;20039;-70
2022/08/31 03:31:50;;;;;;;1.38;1.15;;;14.60;96.10;;;;;;4922714;29;20047;-70
2022/08/31 03:34:16;;;;;;;2.72;1.40;;;14.60;96.20;;;;;;4924416;29;20032;-70
2022/08/31 03:36:42;;;;;;;1.90;1.20;;;14.70;96.30;;;;;;4922484;29;20027;-71
2022/08/31 03:39:08;;;;;;;2.85;1.38;;;14.70;96.30;;;;;;4923641;29;20853;-70
2022/08/31 03:41:34;;;;;;;4.35;1.25;;;14.70;96.30;;;;;;4935786;28;20380;-71
2022/08/31 03:44:00;;;;;;;1.80;1.52;;;14.70;96.30;;;;;;4917914;29;20055;-69
2022/08/31 03:46:31;;;;;;;1.77;1.10;;;14.70;96.20;;;;;;4926317;29;20028;-70
2022/08/31 03:49:00;;;;;;;1.17;1.05;;;14.70;96.20;;;;;;4924078;29;20047;-70
2022/08/31 03:51:27;;;;;;;2.22;1.25;;;14.70;96.30;;;;;;4926179;29;20024;-70
2022/08/31 03:53:54;;;;;;;2.90;1.30;;;14.70;96.30;;;;;;4922949;29;20502;-71
2022/08/31 03:56:20;;;;;;;3.17;1.33;;;14.70;96.30;;;;;;4923437;29;20038;-71
2022/08/31 03:58:48;;;;;;;2.70;1.60;;;14.70;96.20;;;;;;4920591;29;20889;-71
2022/08/31 04:01:35;;;;;;;4.67;1.07;;;14.70;96.20;;;;;;4923093;29;20102;-71
2022/08/31 04:04:19;;;;;;;3.65;1.15;;;14.60;96.20;;;;;;4922166;29;20876;-71
2022/08/31 04:06:48;;;;;;;5.35;1.27;;;14.60;96.20;;;;;;4916776;28;20130;-71
2022/08/31 04:09:37;;;;;;;3.08;1.20;;;14.60;96.20;;;;;;4920018;29;20019;-71
2022/08/31 04:12:40;;;;;;;2.03;1.10;;;14.60;96.30;;;;;;4924630;29;20369;-71
2022/08/31 04:15:12;;;;;;;1.50;1.23;;;14.60;96.30;;;;;;4920386;29;20519;-71
2022/08/31 04:17:56;;;;;;;2.15;1.33;;;14.60;96.30;;;;;;4920665;29;20136;-71
2022/08/31 04:20:47;;;;;;;2.38;1.48;;;14.50;96.20;;;;;;4920951;29;20031;-71
2022/08/31 04:23:13;;;;;;;2.17;1.33;;;14.60;96.30;;;;;;4916336;29;20046;-71
2022/08/31 04:25:46;;;;;;;3.55;1.33;;;14.60;96.40;;;;;;4930981;28;20031;-71
2022/08/31 04:28:11;;;;;;;2.53;1.23;;;14.60;96.40;;;;;;4922064;29;20039;-70
2022/08/31 04:30:41;;;;;;;1.80;1.20;;;14.60;96.40;;;;;;4925183;29;20395;-70
2022/08/31 04:33:07;;;;;;;4.38;1.48;;;14.60;96.50;;;;;;4920131;29;20036;-71
2022/08/31 04:35:33;;;;;;;2.45;1.30;;;14.60;96.60;;;;;;4935806;28;20032;-70
2022/08/31 04:37:59;;;;;;;2.63;1.55;;;14.70;96.70;;;;;;4922078;29;20032;-71
2022/08/31 04:40:25;;;;;;;2.42;1.42;;;14.70;96.70;;;;;;4924196;29;20122;-70
2022/08/31 04:42:52;;;;;;;3.92;1.40;;;14.70;96.70;;;;;;4921499;29;20039;-71
2022/08/31 04:45:21;;;;;;;4.03;1.42;;;14.70;96.70;;;;;;4917475;29;20110;-71
2022/08/31 04:47:47;;;;;;;1.35;1.25;;;14.70;96.80;;;;;;4925257;28;20501;-71
2022/08/31 04:50:15;;;;;;;1.30;1.20;;;14.70;96.90;;;;;;4921750;29;20119;-70
2022/08/31 04:53:01;;;;;;;1.55;1.15;;;14.70;96.90;;;;;;4920437;29;20044;-70
2022/08/31 04:55:26;;;;;;;2.30;1.05;;;14.70;96.90;;;;;;4921081;29;20716;-71
2022/08/31 04:57:52;;;;;;;1.20;1.10;;;14.70;96.90;;;;;;4917700;29;20158;-70
2022/08/31 05:00:18;;;;;;;3.03;1.60;;;14.80;96.80;;;;;;4923060;29;20042;-70
2022/08/31 05:02:59;;;;;;;1.50;1.25;;;14.80;96.80;;;;;;4918663;29;20146;-70
2022/08/31 05:05:25;;;;;;;4.47;1.65;;;14.80;96.70;;;;;;4919061;29;20148;-70
2022/08/31 05:07:50;;;;;;;3.15;1.35;;;14.80;96.60;;;;;;4923967;29;20471;-70
2022/08/31 05:10:16;;;;;;;3.38;1.55;;;14.80;96.60;;;;;;4920219;29;20282;-70
2022/08/31 05:12:45;;;;;;;2.55;1.70;;;14.80;96.70;;;;;;4936462;28;20028;-70
2022/08/31 05:15:12;;;;;;;2.10;1.50;;;14.90;96.70;;;;;;4917368;29;20035;-70
2022/08/31 05:17:38;;;;;;;2.10;1.33;;;14.90;96.80;;;;;;4918784;28;20751;-71
2022/08/31 05:20:05;;;;;;;2.20;1.58;;;14.90;96.80;;;;;;4920152;29;20857;-70
2022/08/31 05:22:31;;;;;;;2.15;1.38;;;15.00;96.90;;;;;;4916689;29;20045;-70
2022/08/31 05:24:58;;;;;;;3.45;1.58;;;15.00;96.90;;;;;;4919718;29;20067;-71
2022/08/31 05:27:23;;;;;;;2.42;1.70;;;15.10;97.00;;;;;;4922168;29;20086;-70
2022/08/31 05:29:49;;;;;;;2.47;1.73;;;15.20;97.20;;;;;;4922740;29;20035;-70
2022/08/31 05:32:33;;;;;;;2.72;1.70;;;15.30;97.20;;;;;;4920167;29;20045;-70
2022/08/31 05:35:00;;;;;;;3.53;1.85;;;15.40;97.20;;;;;;4916316;29;20035;-70
2022/08/31 05:37:26;;;;;;;4.43;1.63;;;15.60;97.20;;;;;;4919464;29;20087;-70
2022/08/31 05:39:53;;;;;;;3.28;1.95;;;15.70;96.60;;;;;;4913373;29;20773;-70
2022/08/31 05:42:19;;;;;;;2.95;1.20;;;15.80;96.30;;;;;;4922365;29;20179;-71
2022/08/31 05:44:46;;;;;;;3.22;1.58;;;15.90;96.10;;;;;;4922211;29;20031;-70
2022/08/31 05:47:12;;;;;;;3.60;1.30;;;16.00;95.60;;;;;;4921041;29;20032;-70
2022/08/31 05:49:40;;;;;;;1.90;1.55;;;16.00;95.60;;;;;;4936026;28;20430;-70
2022/08/31 05:52:06;;;;;;;7.35;1.45;;;16.10;95.70;;;;;;4916187;29;20043;-70
2022/08/31 05:54:34;;;;;;;3.38;1.10;;;16.10;95.30;;;;;;4923367;29;20507;-70
2022/08/31 05:57:00;;;;;;;1.85;1.20;;;16.20;95.30;;;;;;4916421;29;20563;-70
2022/08/31 05:59:26;;;;;;;4.75;1.75;;;16.30;95.00;;;;;;4924697;29;20058;-70
2022/08/31 06:01:52;;;;;;;1.52;1.15;;;16.30;94.60;;;;;;4916605;29;20112;-70
2022/08/31 06:04:25;;;;;;;4.43;1.73;;;16.40;94.40;;;;;;4922141;29;20530;-71
2022/08/31 06:06:51;;;;;;;3.60;1.65;;;16.50;93.90;;;;;;4922079;29;20404;-70
2022/08/31 06:09:20;;;;;;;3.22;1.40;;;16.70;93.80;;;;;;4922392;29;21596;-71
2022/08/31 06:11:46;;;;;;;3.63;1.40;;;16.90;93.90;;;;;;4921695;29;20043;-70
2022/08/31 06:14:17;;;;;;;2.83;1.30;;;17.10;93.30;;;;;;4920603;29;20583;-70
2022/08/31 06:16:44;;;;;;;3.10;1.30;;;17.20;92.50;;;;;;4914987;29;20064;-70
2022/08/31 06:19:12;;;;;;;5.35;1.50;;;17.30;92.10;;;;;;4913393;29;20035;-71
2022/08/31 06:21:41;;;;;;;4.55;1.70;;;17.40;91.90;;;;;;4921527;29;20520;-70
2022/08/31 06:24:11;;;;;;;6.97;1.33;;;17.60;91.40;;;;;;4919814;29;20103;-70
2022/08/31 06:26:38;;;;;;;4.63;1.30;;;17.70;90.40;;;;;;4920343;29;20027;-70
2022/08/31 06:29:11;;;;;;;2.83;1.38;;;17.70;91.00;;;;;;4917772;29;20504;-70
2022/08/31 06:31:45;;;;;;;7.43;1.40;;;17.70;90.90;;;;;;4918817;29;20028;-70
2022/08/31 06:34:15;;;;;;;3.45;1.20;;;17.80;90.50;;;;;;4931459;29;20038;-70
2022/08/31 06:37:00;;;;;;;2.67;1.08;;;17.90;90.10;;;;;;4914328;29;20492;-70
2022/08/31 06:39:40;;;;;;;5.28;1.70;;;17.80;90.50;;;;;;4915822;29;20031;-70
2022/08/31 06:42:25;;;;;;;5.53;1.20;;;17.90;90.40;;;;;;4921887;29;20484;-70
2022/08/31 06:44:51;;;;;;;3.60;1.35;;;17.80;90.30;;;;;;4921756;29;20036;-69
2022/08/31 06:47:19;;;;;;;6.40;1.50;;;17.70;90.00;;;;;;4934338;29;20041;-71
2022/08/31 06:49:44;;;;;;;7.90;1.77;;;17.70;90.10;;;;;;4922714;29;20050;-71
2022/08/31 06:52:13;;;;;;;1.63;1.20;;;17.70;90.60;;;;;;4915636;29;20038;-70
2022/08/31 06:54:40;;;;;;;2.85;1.02;;;17.60;90.30;;;;;;4921985;29;20092;-70
2022/08/31 06:57:25;;;;;;;2.13;1.10;;;17.60;90.60;;;;;;4916079;29;20102;-70
2022/08/31 07:00:09;;;;;;;2.83;0.93;;;17.70;90.80;;;;;;4927160;29;20054;-70
2022/08/31 07:02:48;;;;;;;3.03;1.02;;;17.70;90.20;;;;;;4920109;29;20031;-69
2022/08/31 07:05:14;;;;;;;3.53;1.10;;;17.70;89.30;;;;;;4917338;29;20044;-70
2022/08/31 07:07:40;;;;;;;3.38;1.00;;;17.80;90.00;;;;;;4934011;28;20036;-70
2022/08/31 07:10:09;;;;;;;2.40;0.90;;;18.00;89.70;;;;;;4919861;29;20485;-70
2022/08/31 07:12:35;;;;;;;2.90;0.80;;;18.00;88.20;;;;;;4915790;29;20039;-70
2022/08/31 07:15:01;;;;;;;2.65;1.00;;;18.20;89.60;;;;;;4912789;29;20038;-71
2022/08/31 07:17:27;;;;;;;5.75;1.00;;;18.60;90.00;;;;;;4931220;29;20032;-70
2022/08/31 07:19:53;;;;;;;3.28;1.08;;;18.90;84.90;;;;;;4921826;29;20097;-70
2022/08/31 07:22:20;;;;;;;1.10;0.65;;;19.20;82.90;;;;;;4919463;29;20131;-70
2022/08/31 07:24:50;;;;;;;2.20;0.75;;;19.70;83.40;;;;;;4919907;29;20130;-70
2022/08/31 07:27:17;;;;;;;1.67;0.90;;;20.00;80.20;;;;;;4916692;29;20571;-70
2022/08/31 07:30:03;;;;;;;2.83;0.80;;;20.10;78.60;;;;;;4919058;29;20055;-70
2022/08/31 07:32:32;;;;;;;2.47;0.70;;;20.00;78.80;;;;;;4926141;29;20609;-70
2022/08/31 07:34:59;;;;;;;3.25;0.90;;;20.00;79.90;;;;;;4922858;29;20032;-70
2022/08/31 07:43:14;;;;;;;2.80;0.77;;;19.80;75.90;;;;;;4920618;29;20090;-70
2022/08/31 07:45:41;;;;;;;2.60;0.73;;;19.80;78.20;;;;;;4920974;29;20031;-71
2022/08/31 07:48:07;;;;;;;3.17;0.80;;;19.90;78.90;;;;;;4922616;29;20159;-70
2022/08/31 07:50:53;;;;;;;1.27;0.77;;;19.80;77.90;;;;;;4918605;29;20027;-70
2022/08/31 07:53:23;;;;;;;2.03;0.70;;;19.80;76.80;;;;;;4916824;29;20111;-71
2022/08/31 07:56:05;;;;;;;2.60;0.80;;;19.80;77.80;;;;;;4924220;29;20114;-70
2022/08/31 07:58:39;;;;;;;1.02;0.52;;;19.80;78.40;;;;;;4939881;28;20031;-70
2022/08/31 08:01:05;;;;;;;2.15;0.80;;;19.90;76.20;;;;;;4920983;29;20036;-71
2022/08/31 08:03:31;;;;;;;1.35;0.60;;;20.10;76.40;;;;;;4938081;28;20420;-71
2022/08/31 08:06:16;;;;;;;1.90;0.73;;;20.40;76.10;;;;;;4923281;29;20063;-70
2022/08/31 08:09:04;;;;;;;1.70;0.60;;;20.70;72.00;;;;;;4919201;29;20047;-71
2022/08/31 08:11:43;;;;;;;2.38;0.70;;;21.00;70.00;;;;;;4915092;29;20028;-71
2022/08/31 08:14:29;;;;;;;0.98;0.52;;;21.10;72.40;;;;;;4920221;29;20020;-70
2022/08/31 08:17:06;;;;;;;1.42;0.70;;;21.10;68.20;;;;;;4924177;29;20571;-70
2022/08/31 08:19:58;;;;;;;3.25;0.70;;;21.00;69.00;;;;;;4921558;29;20039;-70
2022/08/31 08:22:23;;;;;;;1.48;0.73;;;20.90;70.30;;;;;;4918920;29;20054;-70
2022/08/31 08:25:08;;;;;;;0.85;0.50;;;20.90;70.00;;;;;;4918747;29;20095;-70
2022/08/31 08:27:42;;;;;;;1.25;0.52;;;20.90;67.80;;;;;;4917473;29;20031;-71
2022/08/31 08:30:34;;;;;;;2.17;0.77;;;20.90;67.00;;;;;;4921621;29;20056;-70
2022/08/31 08:33:02;;;;;;;2.33;0.70;;;20.90;68.50;;;;;;4923745;29;20546;-71
2022/08/31 08:35:31;;;;;;;1.38;0.70;;;21.00;67.90;;;;;;4923635;29;20027;-71
2022/08/31 08:37:57;;;;;;;2.45;0.75;;;21.00;66.60;;;;;;4923940;29;20028;-71
2022/08/31 08:40:36;;;;;;;1.17;0.80;;;21.00;67.40;;;;;;4921613;29;20028;-71
2022/08/31 08:43:04;;;;;;;2.28;0.70;;;21.00;67.00;;;;;;4922135;29;20035;-71
2022/08/31 08:45:31;;;;;;;0.90;0.70;;;21.10;68.90;;;;;;4920127;29;20036;-71
2022/08/31 08:47:59;;;;;;;1.83;0.60;;;21.10;68.30;;;;;;4918422;29;20084;-70
2022/08/31 08:50:27;;;;;;;2.17;0.60;;;21.00;65.20;;;;;;4917249;29;20814;-71
2022/08/31 08:52:56;;;;;;;2.35;0.63;;;21.10;65.10;;;;;;4924423;29;20113;-71
2022/08/31 08:55:34;;;;;;;0.95;0.50;;;21.20;67.00;;;;;;4938299;29;20365;-70
2022/08/31 08:58:04;;;;;;;1.08;0.60;;;21.20;66.90;;;;;;4923393;29;20118;-70
2022/08/31 09:00:32;;;;;;;1.25;0.60;;;21.40;65.10;;;;;;4921780;29;20031;-70
2022/08/31 09:03:21;;;;;;;1.90;0.52;;;21.70;63.60;;;;;;4918101;29;20035;-71
2022/08/31 09:06:34;;;;;;;2.65;0.70;;;22.00;62.90;;;;;;4917346;29;20747;-71
2022/08/31 09:09:17;;;;;;;2.13;0.60;;;22.10;63.30;;;;;;4914591;29;20087;-71
2022/08/31 09:11:54;;;;;;;1.48;0.60;;;22.10;61.10;;;;;;4924896;29;20570;-71
2022/08/31 09:14:29;;;;;;;2.25;0.60;;;22.10;62.20;;;;;;4923186;29;20380;-71
2022/08/31 09:17:15;;;;;;;6.72;0.60;;;22.10;61.70;;;;;;4935155;29;20032;-71
2022/08/31 09:19:58;;;;;;;3.88;0.57;;;22.00;57.70;;;;;;4922558;29;20023;-71
2022/08/31 09:22:31;;;;;;;0.75;0.50;;;22.00;57.90;;;;;;4924975;29;20057;-71
2022/08/31 09:25:02;;;;;;;3.03;0.75;;;21.90;59.80;;;;;;4915670;29;20737;-71
2022/08/31 09:27:57;;;;;;;1.35;0.50;;;22.00;59.40;;;;;;4912427;29;20915;-71
2022/08/31 09:30:42;;;;;;;1.60;0.65;;;22.00;57.00;;;;;;4925181;29;20036;-71
2022/08/31 09:33:18;;;;;;;3.92;0.65;;;21.90;59.30;;;;;;4922409;29;20810;-71
2022/08/31 09:35:44;;;;;;;1.13;0.60;;;22.00;60.90;;;;;;4922737;28;20028;-71
2022/08/31 09:38:24;;;;;;;0.77;0.50;;;22.10;60.40;;;;;;4920255;29;20036;-71
2022/08/31 09:40:51;;;;;;;1.85;0.57;;;22.20;59.00;;;;;;4919764;29;20040;-71
2022/08/31 09:43:26;;;;;;;3.35;0.60;;;22.30;56.70;;;;;;4919006;29;20040;-71
2022/08/31 09:46:11;;;;;;;3.85;0.63;;;22.40;59.20;;;;;;4915736;29;20032;-71
2022/08/31 09:48:51;;;;;;;1.58;0.80;;;22.50;57.60;;;;;;4923389;29;20078;-71
2022/08/31 09:51:26;;;;;;;1.08;0.70;;;22.60;57.10;;;;;;4922925;29;20485;-71
2022/08/31 09:56:55;;;;;;;1.58;0.70;;;22.70;56.40;;;;;;4918406;29;20385;-71
2022/08/31 09:59:40;;;;;;;1.33;0.60;;;22.80;56.90;;;;;;4920237;29;20596;-71
2022/08/31 10:02:27;;;;;;;0.75;0.47;;;23.00;56.90;;;;;;4917145;29;20875;-71
2022/08/31 10:05:04;;;;;;;1.35;0.65;;;23.00;56.70;;;;;;4918097;29;20052;-71
2022/08/31 10:07:42;;;;;;;2.55;0.70;;;23.00;56.40;;;;;;4917462;29;20220;-71
2022/08/31 10:10:10;;;;;;;1.27;0.70;;;23.10;57.70;;;;;;4924288;29;20396;-71
2022/08/31 10:12:52;;;;;;;1.73;0.70;;;23.00;56.20;;;;;;4923223;29;20046;-71
2022/08/31 10:15:34;;;;;;;1.23;0.40;;;23.10;55.70;;;;;;4920879;29;20040;-71
2022/08/31 10:18:21;;;;;;;0.80;0.52;;;23.10;57.20;;;;;;4918753;29;20050;-71
2022/08/31 10:20:55;;;;;;;2.22;0.43;;;23.00;58.60;;;;;;4920004;29;20039;-70
2022/08/31 10:23:40;;;;;;;1.80;0.60;;;22.90;55.50;;;;;;4919632;29;20039;-71
2022/08/31 10:26:19;;;;;;;0.55;0.50;;;23.00;55.90;;;;;;4918885;29;20152;-71
2022/08/31 10:28:54;;;;;;;2.88;0.52;;;23.10;54.40;;;;;;4924260;29;20027;-71
2022/08/31 10:31:28;;;;;;;2.22;0.80;;;23.10;55.80;;;;;;4920097;29;20031;-71
2022/08/31 10:37:30;;;;;;;2.88;0.50;;;23.10;56.10;;;;;;4920674;29;20039;-71
2022/08/31 10:40:08;;;;;;;1.40;0.50;;;22.90;54.80;;;;;;4918037;29;20043;-71
2022/08/31 10:42:38;;;;;;;1.75;0.80;;;22.80;55.50;;;;;;4914522;29;20449;-71
2022/08/31 10:45:16;;;;;;;2.22;0.55;;;22.70;54.90;;;;;;4917621;29;20130;-71
2022/08/31 10:47:47;;;;;;;1.83;0.60;;;22.60;55.30;;;;;;4923383;28;20130;-71
2022/08/31 10:50:25;;;;;;;1.25;0.60;;;22.50;57.50;;;;;;4923211;29;20107;-71
2022/08/31 10:53:17;;;;;;;2.42;0.63;;;22.60;57.40;;;;;;4920338;29;20024;-71
2022/08/31 10:55:56;;;;;;;0.80;0.70;;;22.70;58.40;;;;;;4919009;29;20035;-71
2022/08/31 10:58:22;;;;;;;0.95;0.60;;;22.70;56.00;;;;;;4919435;29;20055;-71
2022/08/31 11:01:16;;;;;;;2.13;0.43;;;22.70;57.30;;;;;;4917175;29;20691;-71
2022/08/31 11:04:19;;;;;;;1.55;0.75;;;22.70;56.50;;;;;;4925908;29;20403;-71
2022/08/31 11:07:05;;;;;;;3.30;0.47;;;22.60;57.00;;;;;;4922736;29;20050;-71
2022/08/31 11:09:38;;;;;;;2.40;0.40;;;22.60;55.50;;;;;;4926865;28;20035;-71
2022/08/31 11:12:20;;;;;;;1.27;0.63;;;22.40;55.50;;;;;;4923735;29;20590;-71
2022/08/31 11:15:11;;;;;;;1.48;0.60;;;22.50;56.80;;;;;;4922960;29;20027;-71
2022/08/31 11:17:52;;;;;;;1.42;0.50;;;22.50;56.00;;;;;;4921971;29;20035;-71
2022/08/31 11:20:27;;;;;;;0.68;0.50;;;22.50;57.10;;;;;;4919162;29;20036;-71
2022/08/31 11:23:07;;;;;;;1.10;0.60;;;22.70;57.10;;;;;;4924794;29;20120;-69
2022/08/31 11:26:03;;;;;;;0.73;0.50;;;22.80;56.60;;;;;;4923502;29;20063;-71
2022/08/31 11:29:27;;;;;;;1.30;0.50;;;22.80;55.10;;;;;;4925340;28;20115;-71
2022/08/31 11:31:59;;;;;;;0.68;0.43;;;22.90;54.60;;;;;;4881575;29;20054;-71
2022/08/31 11:34:28;;;;;;;0.70;0.43;;;22.90;51.90;;;;;;4926463;29;20032;-71
2022/08/31 11:36:58;;;;;;;1.27;0.57;;;23.00;53.90;;;;;;4918435;29;20749;-71
2022/08/31 11:39:34;;;;;;;1.52;0.55;;;23.10;56.30;;;;;;4920880;29;20878;-71
2022/08/31 11:42:32;;;;;;;1.10;0.52;;;23.30;54.30;;;;;;4923791;29;20927;-71
2022/08/31 11:45:25;;;;;;;1.85;0.45;;;23.30;51.50;;;;;;4921652;29;20051;-71
2022/08/31 11:47:53;;;;;;;1.10;0.68;;;23.30;52.70;;;;;;4922252;29;20110;-71
2022/08/31 11:50:48;;;;;;;2.08;0.60;;;23.30;51.70;;;;;;4922938;29;20128;-71
2022/08/31 11:53:36;;;;;;;0.98;0.60;;;23.30;53.70;;;;;;4913357;29;20142;-71
2022/08/31 11:56:03;;;;;;;0.80;0.50;;;23.30;51.20;;;;;;4917814;29;20044;-71
2022/08/31 11:58:41;;;;;;;0.93;0.70;;;23.30;53.20;;;;;;4919178;29;20036;-71
2022/08/31 12:01:09;;;;;;;1.23;0.60;;;23.30;53.00;;;;;;4923825;29;20048;-71
2022/08/31 12:03:52;;;;;;;1.58;0.38;;;23.40;53.30;;;;;;4925990;29;20773;-71
2022/08/31 12:06:23;;;;;;;2.50;0.50;;;23.50;52.60;;;;;;4922401;29;20072;-71
2022/08/31 12:08:55;;;;;;;1.85;0.60;;;23.60;52.90;;;;;;4921128;29;20047;-71
2022/08/31 12:11:40;;;;;;;1.10;0.40;;;23.60;51.00;;;;;;4922321;29;20070;-70
2022/08/31 12:14:22;;;;;;;1.92;0.70;;;23.40;50.80;;;;;;4917774;29;20068;-71
2022/08/31 12:16:59;;;;;;;0.95;0.68;;;23.40;51.60;;;;;;4917908;29;20084;-71
2022/08/31 12:25:47;;;;;;;1.52;0.50;;;23.20;53.00;;;;;;4923439;29;20309;-71
2022/08/31 12:28:34;;;;;;;2.05;0.60;;;23.20;52.60;;;;;;4921304;29;20035;-71
2022/08/31 12:31:08;;;;;;;1.20;0.35;;;23.20;53.50;;;;;;4926466;29;20051;-71
2022/08/31 12:33:37;;;;;;;2.85;0.55;;;23.30;53.70;;;;;;4923908;29;20703;-71
2022/08/31 12:36:11;;;;;;;4.53;0.70;;;23.50;52.10;;;;;;4920734;29;20066;-71
2022/08/31 12:38:37;;;;;;;1.05;0.60;;;23.70;52.20;;;;;;4923040;29;20073;-71
2022/08/31 12:41:04;;;;;;;1.38;0.60;;;23.90;51.10;;;;;;4924907;29;20055;-71
2022/08/31 12:43:36;;;;;;;0.55;0.50;;;23.90;50.90;;;;;;4923590;29;20035;-71
2022/08/31 12:46:20;;;;;;;0.52;0.52;;;24.00;52.10;;;;;;4920526;29;20058;-71
2022/08/31 12:49:20;;;;;;;1.55;0.50;;;24.00;49.70;;;;;;4921382;29;20036;-71
2022/08/31 12:51:58;;;;;;;1.17;0.55;;;24.00;48.70;;;;;;4920247;29;20031;-71
2022/08/31 12:54:38;;;;;;;1.42;0.60;;;23.90;48.60;;;;;;4918698;29;20869;-71
2022/08/31 12:57:16;;;;;;;2.10;0.70;;;23.80;51.20;;;;;;4919692;29;20431;-70
2022/08/31 13:00:06;;;;;;;3.55;0.60;;;23.80;48.10;;;;;;4924936;29;20038;-71
2022/08/31 13:02:36;;;;;;;0.73;0.50;;;23.90;49.00;;;;;;4922742;29;20403;-71
2022/08/31 13:05:12;;;;;;;1.25;0.68;;;24.00;48.00;;;;;;4923841;29;20040;-71
2022/08/31 13:07:38;;;;;;;2.33;0.60;;;23.70;48.00;;;;;;4921769;29;20073;-71
2022/08/31 13:10:14;;;;;;;0.40;0.40;;;23.60;49.70;;;;;;4918086;29;20099;-71
2022/08/31 13:12:48;;;;;;;1.92;0.60;;;23.40;50.50;;;;;;4916946;29;20082;-71
2022/08/31 13:15:27;;;;;;;1.33;0.60;;;23.40;51.10;;;;;;4917255;29;20404;-71
2022/08/31 13:17:53;;;;;;;1.33;0.55;;;23.50;51.10;;;;;;4921892;29;20150;-71
2022/08/31 13:20:24;;;;;;;2.72;0.80;;;23.60;52.20;;;;;;4922917;29;20067;-71
2022/08/31 13:23:01;;;;;;;1.10;0.45;;;23.70;51.00;;;;;;4921379;29;20054;-71
2022/08/31 13:25:36;;;;;;;1.42;0.50;;;23.70;50.60;;;;;;4923024;29;20036;-71
2022/08/31 13:28:05;;;;;;;1.55;0.60;;;23.70;48.70;;;;;;4918023;29;20032;-71
2022/08/31 13:30:37;;;;;;;0.93;0.45;;;23.70;49.70;;;;;;4920052;29;20543;-71
2022/08/31 13:33:30;;;;;;;2.10;0.40;;;23.40;48.60;;;;;;4915970;29;20126;-71
2022/08/31 13:36:31;;;;;;;2.50;0.50;;;23.20;49.50;;;;;;4921293;29;20046;-71
2022/08/31 13:39:10;;;;;;;2.35;0.70;;;23.00;49.40;;;;;;4921722;29;20031;-71